createdAt,value
2024-05-09T00:09:02.511Z,99.90
2024-05-09T00:19:05.330Z,99.90
2024-05-09T00:29:09.115Z,99.90
2024-05-09T00:39:11.674Z,99.90
2024-05-09T00:49:14.631Z,99.90
2024-05-09T00:59:17.718Z,99.90
2024-05-09T01:09:20.315Z,99.90
2024-05-09T01:19:30.208Z,99.90
2024-05-09T01:29:32.904Z,99.90
2024-05-09T01:39:35.666Z,99.90
2024-05-09T01:49:40.231Z,99.90
2024-05-09T01:59:42.810Z,99.90
2024-05-09T02:09:45.304Z,99.90
2024-05-09T02:19:47.947Z,99.90
2024-05-09T02:29:50.578Z,99.90
2024-05-09T02:39:53.139Z,99.90
2024-05-09T02:49:56.508Z,99.90
2024-05-09T02:59:59.082Z,99.90
2024-05-09T03:10:01.834Z,99.90
2024-05-09T03:20:06.991Z,99.90
2024-05-09T03:30:15.580Z,99.90
2024-05-09T03:40:28.924Z,99.90
2024-05-09T03:50:35.694Z,99.90
2024-05-09T04:00:40.345Z,99.90
2024-05-09T04:10:43.293Z,99.90
2024-05-09T04:20:46.448Z,99.90
2024-05-09T04:30:49.614Z,99.90
2024-05-09T04:40:52.204Z,99.90
2024-05-09T04:50:55.037Z,99.90
2024-05-09T05:00:57.665Z,99.90
2024-05-09T05:11:00.475Z,99.90
2024-05-09T05:21:03.139Z,99.90
2024-05-09T05:31:05.857Z,99.90
2024-05-09T05:41:09.441Z,99.90
2024-05-09T06:01:15.188Z,93.00
2024-05-09T06:11:18.009Z,90.10
2024-05-09T06:21:20.614Z,87.10
2024-05-09T06:31:24.264Z,87.00
2024-05-09T06:41:26.971Z,90.50
2024-05-09T06:51:29.606Z,88.50
2024-05-09T07:01:32.503Z,85.50
2024-05-09T07:11:35.322Z,82.70
2024-05-09T07:21:38.038Z,79.90
2024-05-09T07:31:40.692Z,78.00
2024-05-09T07:41:43.254Z,73.90
2024-05-09T07:53:17.359Z,73.40
2024-05-09T08:02:08.671Z,70.60
2024-05-09T08:12:13.158Z,71.10
2024-05-09T08:22:16.004Z,69.50
2024-05-09T08:32:18.775Z,70.60
2024-05-09T08:42:23.368Z,68.10
2024-05-09T08:52:26.434Z,68.00
2024-05-09T09:02:29.061Z,66.90
2024-05-09T09:12:32.089Z,64.30
2024-05-09T09:22:35.190Z,65.10
2024-05-09T09:32:37.925Z,64.00
2024-05-09T09:42:42.928Z,64.30
2024-05-09T09:52:46.262Z,62.40
2024-05-09T10:02:49.150Z,64.10
2024-05-09T10:12:56.881Z,63.40
2024-05-09T10:22:59.377Z,64.40
2024-05-09T10:33:02.124Z,63.80
2024-05-09T10:43:06.486Z,62.40
2024-05-09T10:53:09.184Z,64.70
2024-05-09T11:03:11.946Z,67.30
2024-05-09T11:13:14.952Z,67.20
2024-05-09T11:23:18.546Z,66.40
2024-05-09T11:33:21.922Z,67.10
2024-05-09T11:43:24.559Z,67.80
2024-05-09T11:53:27.252Z,66.50
2024-05-09T12:03:30.244Z,65.90
2024-05-09T12:13:33.127Z,65.70
2024-05-09T12:23:36.048Z,65.30
2024-05-09T12:33:38.878Z,65.80
2024-05-09T12:43:41.570Z,65.50
2024-05-09T12:53:44.584Z,65.40
2024-05-09T13:03:47.303Z,66.50
2024-05-09T13:13:49.936Z,65.20
2024-05-09T13:23:52.437Z,65.10
2024-05-09T13:33:55.195Z,65.90
2024-05-09T13:43:57.896Z,66.30
2024-05-09T13:54:00.584Z,65.70
2024-05-09T14:04:03.371Z,66.50
2024-05-09T14:14:06.030Z,66.00
2024-05-09T14:24:08.592Z,66.10
2024-05-09T14:34:11.591Z,66.00
2024-05-09T14:44:14.351Z,65.60
2024-05-09T14:54:17.407Z,66.10
2024-05-09T15:04:20.206Z,65.60
2024-05-09T15:14:23.004Z,65.80
2024-05-09T15:24:25.570Z,66.20
2024-05-09T15:34:29.617Z,65.40
2024-05-09T15:44:32.225Z,66.00
2024-05-09T15:54:35.102Z,66.00
2024-05-09T16:04:37.925Z,66.10
2024-05-09T16:14:41.146Z,66.40
2024-05-09T16:24:43.770Z,65.90
2024-05-09T16:34:46.373Z,66.80
2024-05-09T16:44:48.911Z,66.40
2024-05-09T16:54:52.395Z,66.10
2024-05-09T17:04:55.110Z,66.60
2024-05-09T17:15:03.245Z,66.10
2024-05-09T17:25:11.702Z,66.70
2024-05-09T17:35:26.459Z,67.00
2024-05-09T17:45:32.914Z,67.30
2024-05-09T17:55:41.819Z,67.50
2024-05-09T18:05:45.212Z,67.80
2024-05-09T18:15:57.496Z,68.20
2024-05-09T18:26:02.847Z,68.60
2024-05-09T18:36:07.864Z,69.40
2024-05-09T18:46:33.294Z,70.60
2024-05-09T18:56:37.607Z,71.30
2024-05-09T19:06:40.360Z,80.90
2024-05-09T19:16:43.446Z,88.40
2024-05-09T19:26:46.423Z,88.20
2024-05-09T19:46:52.533Z,94.50
2024-05-09T19:56:56.555Z,97.50
2024-05-09T20:06:59.546Z,98.00
2024-05-09T20:17:02.395Z,99.90
2024-05-09T20:27:05.396Z,99.90
2024-05-09T20:37:09.200Z,99.90
2024-05-09T20:57:27.475Z,99.90
2024-05-09T21:07:30.047Z,99.90
2024-05-09T21:17:32.813Z,99.90
2024-05-09T21:27:36.548Z,99.90
2024-05-09T21:37:41.549Z,99.90
2024-05-09T21:47:44.373Z,99.90
2024-05-09T21:57:47.343Z,99.90
2024-05-09T22:07:49.958Z,99.90
2024-05-09T22:17:52.681Z,99.90
2024-05-09T22:27:59.718Z,99.90
2024-05-09T22:38:07.647Z,99.90
2024-05-09T22:48:10.545Z,99.90
2024-05-09T22:58:17.728Z,99.90
2024-05-09T23:08:20.875Z,99.90
2024-05-09T23:18:24.778Z,99.90
2024-05-09T23:28:28.077Z,99.90
2024-05-09T23:38:30.775Z,99.90
2024-05-09T23:48:33.946Z,99.90
2024-05-09T23:58:36.970Z,99.90
